createdAt,value
2019-05-16T00:01:00.310Z,60.70
2019-05-16T00:03:30.097Z,60.50
2019-05-16T00:05:59.666Z,60.70
2019-05-16T00:08:29.560Z,61.30
2019-05-16T00:10:59.549Z,61.20
2019-05-16T00:13:29.382Z,62.00
2019-05-16T00:15:59.029Z,61.60
2019-05-16T00:18:28.778Z,61.40
2019-05-16T00:20:58.634Z,62.00
2019-05-16T00:23:28.906Z,61.70
2019-05-16T00:25:58.752Z,61.40
2019-05-16T00:28:28.747Z,61.70
2019-05-16T00:30:59.100Z,61.00
2019-05-16T00:33:29.116Z,61.00
2019-05-16T00:36:03.434Z,60.40
2019-05-16T00:38:30.163Z,60.30
2019-05-16T00:40:59.782Z,60.10
2019-05-16T00:43:29.619Z,60.00
2019-05-16T00:45:59.196Z,60.60
2019-05-16T00:48:31.745Z,60.60
2019-05-16T00:51:00.636Z,60.20
2019-05-16T00:53:30.494Z,60.10
2019-05-16T00:56:00.665Z,60.50
2019-05-16T00:58:31.762Z,60.60
2019-05-16T01:01:01.466Z,60.80
2019-05-16T01:03:31.097Z,60.50
2019-05-16T01:06:00.906Z,60.50
2019-05-16T01:08:30.457Z,60.30
2019-05-16T01:11:00.365Z,59.90
2019-05-16T01:13:30.230Z,60.00
2019-05-16T01:15:59.755Z,60.30
2019-05-16T01:18:29.300Z,60.40
2019-05-16T01:20:59.154Z,60.60
2019-05-16T01:23:28.709Z,60.90
2019-05-16T01:25:58.791Z,61.20
2019-05-16T01:28:28.916Z,61.70
2019-05-16T01:30:58.838Z,61.90
2019-05-16T01:33:28.365Z,62.00
2019-05-16T01:35:58.644Z,61.90
2019-05-16T01:38:28.674Z,62.60
2019-05-16T01:40:58.580Z,62.90
2019-05-16T01:43:28.546Z,62.70
2019-05-16T01:45:58.308Z,62.80
2019-05-16T01:48:29.258Z,62.90
2019-05-16T01:50:58.972Z,62.50
2019-05-16T01:53:28.588Z,62.80
2019-05-16T01:55:58.400Z,63.00
2019-05-16T01:58:28.958Z,62.90
2019-05-16T02:01:11.590Z,62.90
2019-05-16T02:03:30.642Z,63.20
2019-05-16T02:06:00.545Z,63.10
2019-05-16T02:08:30.088Z,62.90
2019-05-16T02:11:00.021Z,63.40
2019-05-16T02:13:29.861Z,63.40
2019-05-16T02:15:59.498Z,63.20
2019-05-16T02:18:29.304Z,63.00
2019-05-16T02:21:01.272Z,62.80
2019-05-16T02:23:30.764Z,63.40
2019-05-16T02:26:00.301Z,62.70
2019-05-16T02:28:36.691Z,62.90
2019-05-16T02:31:01.590Z,63.10
2019-05-16T02:33:31.876Z,63.00
2019-05-16T02:36:02.032Z,63.10
2019-05-16T02:38:32.017Z,63.50
2019-05-16T02:41:03.106Z,62.70
2019-05-16T02:43:33.398Z,62.50
2019-05-16T02:46:03.009Z,62.60
2019-05-16T02:48:35.508Z,62.50
2019-05-16T02:51:04.009Z,62.60
2019-05-16T02:53:33.870Z,62.20
2019-05-16T02:56:03.777Z,62.40
2019-05-16T02:58:33.303Z,62.30
2019-05-16T03:01:03.424Z,62.60
2019-05-16T03:03:33.176Z,62.00
2019-05-16T03:06:03.151Z,62.10
2019-05-16T03:08:32.763Z,62.00
2019-05-16T03:11:02.805Z,61.70
2019-05-16T03:13:35.502Z,61.20
2019-05-16T03:16:11.436Z,61.80
2019-05-16T03:18:41.606Z,61.70
2019-05-16T03:21:12.456Z,62.00
2019-05-16T03:23:42.403Z,62.00
2019-05-16T03:26:12.229Z,62.10
2019-05-16T03:28:42.096Z,62.20
2019-05-16T03:31:14.767Z,62.40
2019-05-16T03:33:50.362Z,62.30
2019-05-16T03:36:15.989Z,62.30
2019-05-16T03:38:45.933Z,62.40
2019-05-16T03:41:15.786Z,62.30
2019-05-16T03:43:45.462Z,62.50
2019-05-16T03:46:16.120Z,62.80
2019-05-16T03:48:45.670Z,62.90
2019-05-16T03:51:15.547Z,62.90
2019-05-16T03:53:45.466Z,63.10
2019-05-16T03:56:15.375Z,62.90
2019-05-16T03:58:45.286Z,63.60
2019-05-16T04:01:15.280Z,63.50
2019-05-16T04:03:45.189Z,63.30
2019-05-16T04:06:16.617Z,63.70
2019-05-16T04:08:50.981Z,63.80
2019-05-16T04:11:23.203Z,64.20
2019-05-16T04:13:51.753Z,63.90
2019-05-16T04:16:21.693Z,64.00
2019-05-16T04:18:51.695Z,63.90
2019-05-16T04:21:22.061Z,64.30
2019-05-16T04:23:51.924Z,64.20
2019-05-16T04:26:22.099Z,64.50
2019-05-16T04:28:51.897Z,64.20
2019-05-16T04:31:22.277Z,64.30
2019-05-16T04:33:52.241Z,64.80
2019-05-16T04:36:21.764Z,64.10
2019-05-16T04:38:51.524Z,64.20
2019-05-16T04:41:21.697Z,63.50
2019-05-16T04:43:51.498Z,63.00
2019-05-16T04:46:21.682Z,62.00
2019-05-16T04:48:51.392Z,61.50
2019-05-16T04:51:22.100Z,60.50
2019-05-16T04:53:51.162Z,59.80
2019-05-16T04:56:21.614Z,60.80
2019-05-16T04:58:51.613Z,58.50
2019-05-16T05:01:22.535Z,58.60
2019-05-16T05:04:06.619Z,56.80
2019-05-16T05:06:24.514Z,56.40
2019-05-16T05:08:58.986Z,54.80
2019-05-16T05:11:25.959Z,53.70
2019-05-16T05:13:55.878Z,52.30
2019-05-16T05:16:25.711Z,51.10
2019-05-16T05:18:55.270Z,50.30
2019-05-16T05:21:25.152Z,49.50
2019-05-16T05:23:54.709Z,48.80
2019-05-16T05:26:24.599Z,48.50
2019-05-16T05:28:54.509Z,50.00
2019-05-16T05:31:25.548Z,53.10
2019-05-16T05:33:55.565Z,55.80
2019-05-16T05:36:25.108Z,57.30
2019-05-16T05:39:07.878Z,58.50
2019-05-16T05:41:26.658Z,58.90
2019-05-16T05:43:56.444Z,59.50
2019-05-16T05:46:25.993Z,59.70
2019-05-16T05:48:55.518Z,59.60
2019-05-16T05:51:25.376Z,59.50
2019-05-16T05:53:54.912Z,60.30
2019-05-16T05:56:24.478Z,59.70
2019-05-16T05:58:54.334Z,60.00
2019-05-16T06:01:23.876Z,60.80
2019-05-16T06:03:53.724Z,60.00
2019-05-16T06:06:23.390Z,60.10
2019-05-16T06:08:53.197Z,60.10
2019-05-16T06:11:22.722Z,59.80
2019-05-16T06:13:52.641Z,59.80
2019-05-16T06:16:22.564Z,59.80
2019-05-16T06:18:52.407Z,60.40
2019-05-16T06:21:22.025Z,59.60
2019-05-16T06:23:51.837Z,60.20
2019-05-16T06:26:21.372Z,59.80
2019-05-16T06:28:50.898Z,60.10
2019-05-16T06:31:22.088Z,60.50
2019-05-16T06:33:52.301Z,60.70
2019-05-16T06:36:21.844Z,60.10
2019-05-16T06:38:51.483Z,60.30
2019-05-16T06:41:21.269Z,60.80
2019-05-16T06:43:50.919Z,60.50
2019-05-16T06:46:20.668Z,61.10
2019-05-16T06:48:50.569Z,60.80
2019-05-16T06:51:20.303Z,60.80
2019-05-16T06:53:50.218Z,60.30
2019-05-16T06:56:20.248Z,59.80
2019-05-16T06:58:51.991Z,59.10
2019-05-16T07:01:21.460Z,58.60
2019-05-16T07:03:51.322Z,58.20
2019-05-16T07:06:46.027Z,58.30
2019-05-16T07:08:52.364Z,58.30
2019-05-16T07:11:22.365Z,57.90
2019-05-16T07:13:52.275Z,58.60
2019-05-16T07:16:22.321Z,58.60
2019-05-16T07:18:52.061Z,58.40
2019-05-16T07:21:21.952Z,58.30
2019-05-16T07:23:51.597Z,58.80
2019-05-16T07:26:21.519Z,58.70
2019-05-16T07:28:51.800Z,58.40
2019-05-16T07:31:22.538Z,58.20
2019-05-16T07:33:52.365Z,58.30
2019-05-16T07:36:21.922Z,57.80
2019-05-16T07:38:51.805Z,58.00
2019-05-16T07:41:21.382Z,57.80
2019-05-16T07:43:51.253Z,57.00
2019-05-16T07:46:21.229Z,57.10
2019-05-16T07:48:52.019Z,57.30
2019-05-16T07:51:21.785Z,56.90
2019-05-16T07:53:51.456Z,57.20
2019-05-16T07:56:21.337Z,56.90
2019-05-16T07:58:51.166Z,56.80
2019-05-16T08:01:21.093Z,55.90
2019-05-16T08:03:52.793Z,56.40
2019-05-16T08:06:22.518Z,55.40
2019-05-16T08:08:52.453Z,55.80
2019-05-16T08:11:23.756Z,56.20
2019-05-16T08:13:54.321Z,55.70
2019-05-16T08:16:23.850Z,55.70
2019-05-16T08:18:53.469Z,55.40
2019-05-16T08:21:27.562Z,55.50
2019-05-16T08:23:54.849Z,55.40
2019-05-16T08:26:25.506Z,55.40
2019-05-16T08:28:55.080Z,55.10
2019-05-16T08:31:24.962Z,55.00
2019-05-16T08:33:55.579Z,55.20
2019-05-16T08:36:25.583Z,55.10
2019-05-16T08:38:55.137Z,39.60
2019-05-16T08:41:24.712Z,55.20
2019-05-16T08:43:54.580Z,54.70
2019-05-16T08:46:24.467Z,54.40
2019-05-16T08:48:54.435Z,54.10
2019-05-16T08:51:24.277Z,53.40
2019-05-16T08:53:53.810Z,53.90
2019-05-16T08:56:24.978Z,53.10
2019-05-16T08:58:54.555Z,52.90
2019-05-16T09:01:24.370Z,52.90
2019-05-16T09:03:53.899Z,52.30
2019-05-16T09:06:23.573Z,52.00
2019-05-16T09:08:53.294Z,52.10
2019-05-16T09:11:38.971Z,51.80
2019-05-16T09:13:57.113Z,51.80
2019-05-16T09:16:30.162Z,51.80
2019-05-16T09:18:57.887Z,51.20
2019-05-16T09:21:27.822Z,50.30
2019-05-16T09:23:57.978Z,49.50
2019-05-16T09:26:28.503Z,49.00
2019-05-16T09:28:58.495Z,49.30
2019-05-16T09:31:28.290Z,49.10
2019-05-16T09:33:58.176Z,49.30
2019-05-16T09:36:28.187Z,49.00
2019-05-16T09:38:58.027Z,49.70
2019-05-16T09:41:46.372Z,49.10
2019-05-16T09:43:59.679Z,49.40
2019-05-16T09:46:29.533Z,49.00
2019-05-16T09:49:15.791Z,48.00
2019-05-16T09:51:30.956Z,46.60
2019-05-16T09:54:00.608Z,46.40
2019-05-16T09:56:33.624Z,46.40
2019-05-16T09:59:03.145Z,45.20
2019-05-16T10:01:33.010Z,44.20
2019-05-16T10:04:02.533Z,43.80
2019-05-16T10:06:32.074Z,43.10
2019-05-16T10:09:01.926Z,42.00
2019-05-16T10:11:32.077Z,41.80
2019-05-16T10:14:01.765Z,41.50
2019-05-16T10:16:31.314Z,43.10
2019-05-16T10:19:01.189Z,41.70
2019-05-16T10:21:30.730Z,41.40
2019-05-16T10:24:00.421Z,41.20
2019-05-16T10:26:30.134Z,41.90
2019-05-16T10:28:59.664Z,42.70
2019-05-16T10:31:41.596Z,42.80
2019-05-16T10:34:00.745Z,41.00
2019-05-16T10:36:30.631Z,39.80
2019-05-16T10:39:00.149Z,40.60
2019-05-16T10:41:29.721Z,40.30
2019-05-16T10:43:59.529Z,40.70
2019-05-16T10:46:29.057Z,40.70
2019-05-16T10:48:58.663Z,39.70
2019-05-16T10:51:28.481Z,39.20
2019-05-16T10:54:08.921Z,41.50
2019-05-16T10:56:29.592Z,39.90
2019-05-16T10:59:37.811Z,40.90
2019-05-16T11:01:31.515Z,40.30
2019-05-16T11:04:01.408Z,40.80
2019-05-16T11:06:31.241Z,40.70
2019-05-16T11:09:00.790Z,40.50
2019-05-16T11:11:30.657Z,40.20
2019-05-16T11:14:00.197Z,40.50
2019-05-16T11:16:30.148Z,40.80
2019-05-16T11:19:14.291Z,39.40
2019-05-16T11:21:31.657Z,40.10
2019-05-16T11:24:01.555Z,39.90
2019-05-16T11:26:31.424Z,40.10
2019-05-16T11:29:01.309Z,39.70
2019-05-16T11:31:30.841Z,39.60
2019-05-16T11:34:00.424Z,40.10
2019-05-16T11:36:30.300Z,39.90
2019-05-16T11:39:01.933Z,40.00
2019-05-16T11:41:31.789Z,40.70
2019-05-16T11:44:01.764Z,40.80
2019-05-16T11:46:31.537Z,41.50
2019-05-16T11:49:01.069Z,41.50
2019-05-16T11:51:30.602Z,40.50
2019-05-16T11:54:00.215Z,40.60
2019-05-16T11:56:29.975Z,41.20
2019-05-16T11:58:59.537Z,41.50
2019-05-16T12:01:29.485Z,41.10
2019-05-16T12:03:59.332Z,39.80
2019-05-16T12:06:28.866Z,40.60
2019-05-16T12:08:58.396Z,40.40
2019-05-16T12:11:28.258Z,39.60
2019-05-16T12:13:57.807Z,39.10
2019-05-16T12:16:27.754Z,39.30
2019-05-16T12:18:57.617Z,40.00
2019-05-16T12:21:27.541Z,40.60
2019-05-16T12:23:57.449Z,39.20
2019-05-16T12:26:28.106Z,39.00
2019-05-16T12:28:58.104Z,40.50
2019-05-16T12:31:27.625Z,39.20
2019-05-16T12:33:59.702Z,38.90
2019-05-16T12:36:31.418Z,40.50
2019-05-16T12:39:00.197Z,38.80
2019-05-16T12:41:29.813Z,39.00
2019-05-16T12:43:59.629Z,38.70
2019-05-16T12:46:29.550Z,39.60
2019-05-16T12:48:59.082Z,39.40
2019-05-16T12:51:28.977Z,39.70
2019-05-16T12:53:58.511Z,40.00
2019-05-16T12:56:28.055Z,39.00
2019-05-16T12:58:57.916Z,39.20
2019-05-16T13:01:34.039Z,38.90
2019-05-16T13:03:58.975Z,39.70
2019-05-16T13:06:28.884Z,39.40
2019-05-16T13:08:58.793Z,38.80
2019-05-16T13:11:28.338Z,38.20
2019-05-16T13:14:06.271Z,38.20
2019-05-16T13:16:29.365Z,38.80
2019-05-16T13:18:58.889Z,38.70
2019-05-16T13:21:28.436Z,39.50
2019-05-16T13:23:58.360Z,38.30
2019-05-16T13:26:28.217Z,39.00
2019-05-16T13:28:57.946Z,38.80
2019-05-16T13:31:28.713Z,40.00
2019-05-16T13:33:58.776Z,40.20
2019-05-16T13:36:28.392Z,39.70
2019-05-16T13:38:58.217Z,39.80
2019-05-16T13:41:29.031Z,39.70
2019-05-16T13:43:58.013Z,39.60
2019-05-16T13:46:27.540Z,41.10
2019-05-16T13:48:57.456Z,39.30
2019-05-16T13:51:26.997Z,38.30
2019-05-16T13:53:56.533Z,38.50
2019-05-16T13:56:27.348Z,38.40
2019-05-16T13:58:57.194Z,39.00
2019-05-16T14:01:27.830Z,39.20
2019-05-16T14:03:57.781Z,40.00
2019-05-16T14:06:27.722Z,39.90
2019-05-16T14:08:57.260Z,39.40
2019-05-16T14:11:27.168Z,39.40
2019-05-16T14:13:57.061Z,39.00
2019-05-16T14:16:26.972Z,39.20
2019-05-16T14:18:57.415Z,38.70
2019-05-16T14:21:27.213Z,39.50
2019-05-16T14:23:56.940Z,38.90
2019-05-16T14:26:26.785Z,39.20
2019-05-16T14:28:57.943Z,38.50
2019-05-16T14:31:27.664Z,38.60
2019-05-16T14:33:57.289Z,38.60
2019-05-16T14:36:27.995Z,39.00
2019-05-16T14:38:57.538Z,38.50
2019-05-16T14:41:27.884Z,39.10
2019-05-16T14:43:57.680Z,39.50
2019-05-16T14:46:27.603Z,39.10
2019-05-16T14:48:57.504Z,38.40
2019-05-16T14:51:31.661Z,38.90
2019-05-16T14:53:59.837Z,39.40
2019-05-16T14:56:29.384Z,39.50
2019-05-16T14:58:58.977Z,39.10
2019-05-16T15:01:28.725Z,39.00
2019-05-16T15:03:58.273Z,39.40
2019-05-16T15:06:27.812Z,39.30
2019-05-16T15:08:57.683Z,39.40
2019-05-16T15:11:28.192Z,39.40
2019-05-16T15:13:57.914Z,39.60
2019-05-16T15:16:27.519Z,39.00
2019-05-16T15:18:57.646Z,39.30
2019-05-16T15:21:27.337Z,39.50
2019-05-16T15:23:59.744Z,39.20
2019-05-16T15:26:29.121Z,39.60
2019-05-16T15:28:59.207Z,39.20
2019-05-16T15:31:29.044Z,39.50
2019-05-16T15:33:58.886Z,40.10
2019-05-16T15:36:28.509Z,40.30
2019-05-16T15:39:00.901Z,40.20
2019-05-16T15:41:30.717Z,39.70
2019-05-16T15:44:00.341Z,39.50
2019-05-16T15:46:30.194Z,39.10
2019-05-16T15:49:00.610Z,39.20
2019-05-16T15:51:31.401Z,39.00
2019-05-16T15:54:00.585Z,38.90
2019-05-16T15:56:30.273Z,39.50
2019-05-16T15:59:00.137Z,39.40
2019-05-16T16:01:30.002Z,39.30
2019-05-16T16:03:59.543Z,39.90
2019-05-16T16:06:29.430Z,39.70
2019-05-16T16:08:58.969Z,39.60
2019-05-16T16:11:28.530Z,39.40
2019-05-16T16:13:58.361Z,40.20
2019-05-16T16:16:27.976Z,41.00
2019-05-16T16:18:57.785Z,40.10
2019-05-16T16:21:27.556Z,40.00
2019-05-16T16:23:57.617Z,40.00
2019-05-16T16:26:27.161Z,40.40
2019-05-16T16:28:56.688Z,40.20
2019-05-16T16:31:27.408Z,40.50
2019-05-16T16:33:57.258Z,40.40
2019-05-16T16:36:27.591Z,39.90
2019-05-16T16:38:57.625Z,40.10
2019-05-16T16:41:27.744Z,40.40
2019-05-16T16:43:57.390Z,39.70
2019-05-16T16:46:27.150Z,40.10
2019-05-16T16:48:56.953Z,40.80
2019-05-16T16:51:27.018Z,40.70
2019-05-16T16:53:57.088Z,40.70
2019-05-16T16:56:27.431Z,41.10
2019-05-16T16:58:57.260Z,41.10
2019-05-16T17:01:27.277Z,41.00
2019-05-16T17:03:57.543Z,41.20
2019-05-16T17:06:27.463Z,41.30
2019-05-16T17:08:57.402Z,41.60
2019-05-16T17:11:27.347Z,41.60
2019-05-16T17:13:57.177Z,41.30
2019-05-16T17:16:29.076Z,41.80
2019-05-16T17:18:58.298Z,41.50
2019-05-16T17:21:28.165Z,41.50
2019-05-16T17:23:57.699Z,42.10
2019-05-16T17:26:27.596Z,42.10
2019-05-16T17:28:57.486Z,42.00
2019-05-16T17:31:27.109Z,42.30
2019-05-16T17:33:57.742Z,42.10
2019-05-16T17:36:26.842Z,42.30
2019-05-16T17:38:57.105Z,42.60
2019-05-16T17:41:27.355Z,41.90
2019-05-16T17:43:57.017Z,42.30
2019-05-16T17:46:37.334Z,42.30
2019-05-16T17:48:59.294Z,42.40
2019-05-16T17:51:28.814Z,42.50
2019-05-16T17:53:58.370Z,42.70
2019-05-16T17:56:27.906Z,43.40
2019-05-16T17:58:57.821Z,43.00
2019-05-16T18:01:27.514Z,43.40
2019-05-16T18:03:57.426Z,43.40
2019-05-16T18:06:27.304Z,43.30
2019-05-16T18:08:57.272Z,42.90
2019-05-16T18:11:27.090Z,43.20
2019-05-16T18:13:57.145Z,43.60
2019-05-16T18:16:26.859Z,43.50
2019-05-16T18:18:57.507Z,43.40
2019-05-16T18:21:27.504Z,43.50
2019-05-16T18:23:57.431Z,44.00
2019-05-16T18:26:27.330Z,44.10
2019-05-16T18:28:57.253Z,44.20
2019-05-16T18:31:27.140Z,44.00
2019-05-16T18:33:57.144Z,44.10
2019-05-16T18:36:27.001Z,44.10
2019-05-16T18:38:57.466Z,44.00
2019-05-16T18:41:27.317Z,44.00
2019-05-16T18:43:57.149Z,44.10
2019-05-16T18:46:27.133Z,44.40
2019-05-16T18:48:56.966Z,45.00
2019-05-16T18:51:26.876Z,45.00
2019-05-16T18:53:57.114Z,45.50
2019-05-16T18:56:27.329Z,45.50
2019-05-16T18:58:57.349Z,45.70
2019-05-16T19:01:27.770Z,45.70
2019-05-16T19:03:57.775Z,46.10
2019-05-16T19:06:27.788Z,45.70
2019-05-16T19:08:58.422Z,46.10
2019-05-16T19:11:28.996Z,46.70
2019-05-16T19:13:59.424Z,46.80
2019-05-16T19:16:29.281Z,46.70
2019-05-16T19:18:59.221Z,46.90
2019-05-16T19:21:29.136Z,47.10
2019-05-16T19:23:59.053Z,47.60
2019-05-16T19:26:28.939Z,47.30
2019-05-16T19:28:58.490Z,47.60
2019-05-16T19:31:28.365Z,47.70
2019-05-16T19:33:57.899Z,47.90
2019-05-16T19:36:27.789Z,48.10
2019-05-16T19:38:57.385Z,47.90
2019-05-16T19:41:27.284Z,48.40
2019-05-16T19:43:57.277Z,48.60
2019-05-16T19:46:27.274Z,49.00
2019-05-16T19:48:57.162Z,49.10
2019-05-16T19:51:27.043Z,49.40
2019-05-16T19:53:56.857Z,49.30
2019-05-16T19:56:27.055Z,49.50
2019-05-16T19:58:57.221Z,49.70
2019-05-16T20:01:27.539Z,49.50
2019-05-16T20:03:57.275Z,49.60
2019-05-16T20:06:27.483Z,50.10
2019-05-16T20:08:57.091Z,50.00
2019-05-16T20:11:27.657Z,50.00
2019-05-16T20:13:57.592Z,50.10
2019-05-16T20:16:27.523Z,50.20
2019-05-16T20:18:57.361Z,50.10
2019-05-16T20:21:27.604Z,50.50
2019-05-16T20:23:57.457Z,50.70
2019-05-16T20:26:27.833Z,51.20
2019-05-16T20:28:59.479Z,51.00
2019-05-16T20:31:29.209Z,51.30
2019-05-16T20:33:58.735Z,51.90
2019-05-16T20:36:28.294Z,52.00
2019-05-16T20:38:58.149Z,52.60
2019-05-16T20:41:27.685Z,52.70
2019-05-16T20:43:57.541Z,53.10
2019-05-16T20:46:27.100Z,53.20
2019-05-16T20:48:58.949Z,53.20
2019-05-16T20:51:28.527Z,53.50
2019-05-16T20:53:58.049Z,53.70
2019-05-16T20:56:27.607Z,53.90
2019-05-16T20:58:57.591Z,54.40
2019-05-16T21:01:27.390Z,54.50
2019-05-16T21:03:57.370Z,54.90
2019-05-16T21:06:27.226Z,54.80
2019-05-16T21:08:57.425Z,54.80
2019-05-16T21:11:27.450Z,54.80
2019-05-16T21:13:56.992Z,55.00
2019-05-16T21:16:27.024Z,54.90
2019-05-16T21:18:57.415Z,55.10
2019-05-16T21:21:27.468Z,55.00
2019-05-16T21:23:57.450Z,55.50
2019-05-16T21:26:26.978Z,55.70
2019-05-16T21:28:56.992Z,55.60
2019-05-16T21:31:27.499Z,55.90
2019-05-16T21:33:57.536Z,56.00
2019-05-16T21:36:27.596Z,56.30
2019-05-16T21:38:57.373Z,55.90
2019-05-16T21:41:27.325Z,56.50
2019-05-16T21:43:57.195Z,56.10
2019-05-16T21:46:27.260Z,56.30
2019-05-16T21:48:57.040Z,56.40
2019-05-16T21:51:26.831Z,57.00
2019-05-16T21:53:56.506Z,56.40
2019-05-16T21:56:26.690Z,56.80
2019-05-16T21:58:57.413Z,57.00
2019-05-16T22:01:27.245Z,57.10
2019-05-16T22:03:56.941Z,57.20
2019-05-16T22:06:26.602Z,57.60
2019-05-16T22:08:57.365Z,57.50
2019-05-16T22:11:26.425Z,57.90
2019-05-16T22:13:57.042Z,63.20
2019-05-16T22:16:27.846Z,57.70
2019-05-16T22:18:56.816Z,57.90
2019-05-16T22:21:27.081Z,63.70
2019-05-16T22:23:57.166Z,57.40
2019-05-16T22:26:27.157Z,57.90
2019-05-16T22:28:57.579Z,58.00
2019-05-16T22:31:27.300Z,58.30
2019-05-16T22:33:58.472Z,58.10
2019-05-16T22:36:28.305Z,58.10
2019-05-16T22:38:59.691Z,58.30
2019-05-16T22:41:29.498Z,58.40
2019-05-16T22:43:59.296Z,58.70
2019-05-16T22:46:29.190Z,58.70
2019-05-16T22:48:58.728Z,58.60
2019-05-16T22:51:28.264Z,59.10
2019-05-16T22:53:58.770Z,59.20
2019-05-16T22:56:28.452Z,59.40
2019-05-16T22:58:58.004Z,59.60
2019-05-16T23:01:28.142Z,59.30
2019-05-16T23:03:57.773Z,59.50
2019-05-16T23:06:27.465Z,59.60
2019-05-16T23:08:57.209Z,59.20
2019-05-16T23:11:27.077Z,59.50
2019-05-16T23:13:56.891Z,59.50
2019-05-16T23:16:26.801Z,59.90
2019-05-16T23:18:57.142Z,59.90
2019-05-16T23:21:27.657Z,59.80
2019-05-16T23:23:57.560Z,60.40
2019-05-16T23:26:28.057Z,60.50
2019-05-16T23:28:57.774Z,60.40
2019-05-16T23:31:27.416Z,60.80
2019-05-16T23:33:57.228Z,60.60
2019-05-16T23:36:26.852Z,60.90
2019-05-16T23:38:56.891Z,60.90
2019-05-16T23:41:27.370Z,61.40
2019-05-16T23:43:57.269Z,61.40
2019-05-16T23:46:26.812Z,62.00
2019-05-16T23:48:56.682Z,61.50
2019-05-16T23:51:27.611Z,61.60
2019-05-16T23:53:57.346Z,61.60
2019-05-16T23:56:27.317Z,61.80
2019-05-16T23:58:57.184Z,62.30
